createdAt,value
2018-12-02T00:01:28.153Z,95425.03
2018-12-02T00:03:58.653Z,95422.03
2018-12-02T00:06:29.173Z,95422.56
2018-12-02T00:08:59.502Z,95425.27
2018-12-02T00:11:30.034Z,95416.19
2018-12-02T00:14:00.458Z,95412.45
2018-12-02T00:16:30.770Z,95411.55
2018-12-02T00:19:01.088Z,95417.77
2018-12-02T00:21:31.720Z,95416.71
2018-12-02T00:24:02.250Z,95412.67
2018-12-02T00:26:32.635Z,95412.36
2018-12-02T00:29:03.073Z,95407.50
2018-12-02T00:31:33.580Z,95402.09
2018-12-02T00:34:04.075Z,95391.84
2018-12-02T00:36:34.573Z,95398.61
2018-12-02T00:39:05.681Z,95394.84
2018-12-02T00:41:36.091Z,95380.83
2018-12-02T00:44:06.927Z,95376.99
2018-12-02T00:46:37.320Z,95370.23
2018-12-02T00:49:07.706Z,95372.34
2018-12-02T00:51:38.216Z,95364.70
2018-12-02T00:54:08.776Z,95359.22
2018-12-02T00:56:39.169Z,95341.89
2018-12-02T00:59:09.776Z,95344.36
2018-12-02T01:01:40.066Z,95346.17
2018-12-02T01:04:10.378Z,95354.73
2018-12-02T01:06:40.677Z,95354.00
2018-12-02T01:09:10.973Z,95353.13
2018-12-02T01:11:41.279Z,95352.91
2018-12-02T01:14:12.082Z,95356.75
2018-12-02T01:16:42.365Z,95350.61
2018-12-02T01:19:12.692Z,95347.60
2018-12-02T01:21:43.011Z,95342.48
2018-12-02T01:24:14.215Z,95330.42
2018-12-02T01:26:44.702Z,95332.52
2018-12-02T01:29:15.012Z,95331.23
2018-12-02T01:31:45.390Z,95317.73
2018-12-02T01:34:15.798Z,95321.32
2018-12-02T01:36:46.126Z,95321.41
2018-12-02T01:39:16.524Z,95322.98
2018-12-02T01:41:46.911Z,95319.97
2018-12-02T01:44:17.232Z,95309.92
2018-12-02T01:46:47.751Z,95305.66
2018-12-02T01:49:18.217Z,95304.13
2018-12-02T01:51:48.655Z,95315.47
2018-12-02T01:54:19.041Z,95298.75
2018-12-02T01:56:49.347Z,95300.63
2018-12-02T01:59:19.677Z,95295.81
2018-12-02T02:01:49.973Z,95286.65
2018-12-02T02:04:20.280Z,95280.72
2018-12-02T02:06:50.685Z,95279.59
2018-12-02T02:09:21.170Z,95278.95
2018-12-02T02:11:51.652Z,95279.81
2018-12-02T02:14:22.251Z,95268.13
2018-12-02T02:16:52.622Z,95266.71
2018-12-02T02:19:22.946Z,95265.23
2018-12-02T02:21:53.360Z,95262.45
2018-12-02T02:24:23.846Z,95248.20
2018-12-02T02:26:54.265Z,95242.14
2018-12-02T02:29:24.564Z,95250.93
2018-12-02T02:31:55.180Z,95246.55
2018-12-02T02:34:25.559Z,95250.61
2018-12-02T02:36:55.888Z,95243.84
2018-12-02T02:39:26.189Z,95238.91
2018-12-02T02:41:57.535Z,95239.42
2018-12-02T02:44:27.914Z,95234.05
2018-12-02T02:46:58.339Z,95236.58
2018-12-02T02:49:28.663Z,95241.20
2018-12-02T02:51:59.063Z,95232.76
2018-12-02T02:54:29.354Z,95224.17
2018-12-02T02:56:59.855Z,95226.62
2018-12-02T02:59:30.165Z,95219.06
2018-12-02T03:02:00.552Z,95224.17
2018-12-02T03:04:30.975Z,95219.15
2018-12-02T03:07:01.374Z,95221.02
2018-12-02T03:09:31.699Z,95220.13
2018-12-02T03:12:02.223Z,95221.58
2018-12-02T03:14:32.523Z,95215.95
2018-12-02T03:17:02.993Z,95213.97
2018-12-02T03:19:33.606Z,95216.52
2018-12-02T03:22:03.990Z,95209.91
2018-12-02T03:24:34.323Z,95206.96
2018-12-02T03:27:04.890Z,95202.33
2018-12-02T03:29:35.294Z,95194.55
2018-12-02T03:32:05.707Z,95193.93
2018-12-02T03:34:36.029Z,95197.08
2018-12-02T03:37:06.586Z,95194.36
2018-12-02T03:39:36.963Z,95187.69
2018-12-02T03:42:08.011Z,95188.02
2018-12-02T03:44:38.395Z,95193.09
2018-12-02T03:47:08.702Z,95188.41
2018-12-02T03:49:39.021Z,95191.97
2018-12-02T03:52:09.438Z,95182.83
2018-12-02T03:54:39.854Z,95174.47
2018-12-02T03:57:10.184Z,95172.95
2018-12-02T03:59:41.485Z,95163.88
2018-12-02T04:02:11.803Z,95165.83
2018-12-02T04:04:42.205Z,95159.41
2018-12-02T04:07:12.504Z,95154.84
2018-12-02T04:09:42.813Z,95151.90
2018-12-02T04:12:13.144Z,95160.05
2018-12-02T04:14:43.473Z,95150.36
2018-12-02T04:17:13.881Z,95145.77
2018-12-02T04:19:44.288Z,95142.83
2018-12-02T04:22:14.597Z,95143.38
2018-12-02T04:24:44.925Z,95145.00
2018-12-02T04:27:15.383Z,95145.83
2018-12-02T04:29:45.966Z,95143.12
2018-12-02T04:32:16.370Z,95133.95
2018-12-02T04:34:47.084Z,95138.30
2018-12-02T04:37:17.478Z,95145.05
2018-12-02T04:39:47.774Z,95143.74
2018-12-02T04:42:18.140Z,95149.72
2018-12-02T04:44:48.439Z,95140.51
2018-12-02T04:47:18.846Z,95145.91
2018-12-02T04:49:49.249Z,95148.04
2018-12-02T04:52:19.551Z,95144.81
2018-12-02T04:54:49.864Z,95140.75
2018-12-02T04:57:20.177Z,95132.69
2018-12-02T04:59:50.532Z,95133.22
2018-12-02T05:02:20.860Z,95135.67
2018-12-02T05:04:51.195Z,95126.21
2018-12-02T05:07:21.595Z,95121.09
2018-12-02T05:09:51.912Z,95133.79
2018-12-02T05:12:22.307Z,95124.61
2018-12-02T05:14:52.604Z,95118.89
2018-12-02T05:17:23.008Z,95117.86
2018-12-02T05:19:53.508Z,95109.72
2018-12-02T05:22:23.827Z,95112.70
2018-12-02T05:24:54.192Z,95117.29
2018-12-02T05:27:24.511Z,95124.05
2018-12-02T05:29:54.889Z,95117.25
2018-12-02T05:32:25.204Z,95120.24
2018-12-02T05:34:55.506Z,95121.84
2018-12-02T05:37:25.825Z,95112.42
2018-12-02T05:39:56.333Z,95117.29
2018-12-02T05:42:32.498Z,95118.64
2018-12-02T05:45:03.105Z,95111.07
2018-12-02T05:47:33.406Z,95107.05
2018-12-02T05:50:04.320Z,95106.45
2018-12-02T05:52:34.623Z,95104.00
2018-12-02T05:55:07.774Z,95101.08
2018-12-02T05:57:38.178Z,95099.16
2018-12-02T06:00:17.350Z,95104.81
2018-12-02T06:02:47.866Z,95110.50
2018-12-02T06:05:18.230Z,95104.59
2018-12-02T06:07:48.528Z,95105.73
2018-12-02T06:10:22.480Z,95102.52
2018-12-02T06:12:52.962Z,95112.51
2018-12-02T06:15:23.500Z,95111.70
2018-12-02T06:17:53.944Z,95110.91
2018-12-02T06:20:25.704Z,95109.88
2018-12-02T06:22:57.055Z,95093.92
2018-12-02T06:25:27.683Z,95093.94
2018-12-02T06:27:58.060Z,95080.70
2018-12-02T06:30:31.285Z,95065.82
2018-12-02T06:33:02.864Z,95057.70
2018-12-02T06:35:33.251Z,95042.55
2018-12-02T06:38:04.857Z,95040.09
2018-12-02T06:40:35.185Z,95043.35
2018-12-02T06:43:05.575Z,95054.44
2018-12-02T06:45:35.872Z,95052.56
2018-12-02T06:48:06.383Z,95050.38
2018-12-02T06:50:36.696Z,95059.59
2018-12-02T06:53:07.705Z,95050.92
2018-12-02T06:55:59.652Z,95058.23
2018-12-02T06:58:41.852Z,95067.97
2018-12-02T07:01:43.353Z,95066.88
2018-12-02T07:04:27.194Z,95062.30
2018-12-02T07:06:57.905Z,95059.59
2018-12-02T07:09:28.191Z,95053.91
2018-12-02T07:11:58.569Z,95053.36
2018-12-02T07:14:28.884Z,95063.65
2018-12-02T07:16:59.288Z,95075.83
2018-12-02T07:19:44.983Z,95063.92
2018-12-02T07:22:26.929Z,95066.88
2018-12-02T07:24:58.626Z,95047.69
2018-12-02T07:27:28.933Z,95055.55
2018-12-02T07:29:59.435Z,95048.50
2018-12-02T07:32:29.837Z,95040.66
2018-12-02T07:35:00.242Z,95049.30
2018-12-02T07:37:30.553Z,95043.10
2018-12-02T07:40:12.748Z,95029.30
2018-12-02T07:42:43.064Z,95033.08
2018-12-02T07:45:13.547Z,95024.97
2018-12-02T07:47:43.958Z,95033.08
2018-12-02T07:50:14.321Z,95020.64
2018-12-02T07:52:44.706Z,95020.91
2018-12-02T07:55:15.102Z,95026.58
2018-12-02T07:57:47.746Z,95033.36
2018-12-02T08:00:18.458Z,95025.78
2018-12-02T08:02:48.787Z,95040.64
2018-12-02T08:05:19.479Z,95021.72
2018-12-02T08:07:53.299Z,95038.75
2018-12-02T08:10:23.697Z,95042.55
2018-12-02T08:12:54.889Z,95035.23
2018-12-02T08:15:25.389Z,95035.77
2018-12-02T08:17:55.721Z,95036.88
2018-12-02T08:20:26.119Z,95045.26
2018-12-02T08:22:56.611Z,95029.83
2018-12-02T08:25:27.109Z,95041.47
2018-12-02T08:27:57.527Z,95029.03
2018-12-02T08:30:28.187Z,95027.12
2018-12-02T08:32:58.588Z,95011.97
2018-12-02T08:35:30.335Z,95014.38
2018-12-02T08:38:05.497Z,95001.66
2018-12-02T08:40:35.905Z,95004.91
2018-12-02T08:43:07.651Z,95004.91
2018-12-02T08:45:38.265Z,95007.61
2018-12-02T08:48:08.697Z,95004.39
2018-12-02T08:50:39.243Z,95003.31
2018-12-02T08:53:09.672Z,94998.96
2018-12-02T08:55:40.068Z,95005.47
2018-12-02T08:58:10.466Z,94992.50
2018-12-02T09:00:40.847Z,94994.11
2018-12-02T09:03:11.816Z,94999.52
2018-12-02T09:05:42.247Z,94996.83
2018-12-02T09:08:12.941Z,94979.50
2018-12-02T09:10:45.739Z,94984.91
2018-12-02T09:13:15.171Z,94979.20
2018-12-02T09:15:45.500Z,94971.08
2018-12-02T09:18:15.994Z,94964.88
2018-12-02T09:20:46.369Z,94968.13
2018-12-02T09:23:16.860Z,94971.08
2018-12-02T09:25:47.226Z,94971.59
2018-12-02T09:28:17.540Z,94984.61
2018-12-02T09:30:48.382Z,94982.21
2018-12-02T09:33:18.795Z,94993.28
2018-12-02T09:35:49.190Z,95004.08
2018-12-02T09:38:19.608Z,94985.41
2018-12-02T09:40:49.909Z,94982.42
2018-12-02T09:43:20.330Z,94983.50
2018-12-02T09:45:50.833Z,94971.57
2018-12-02T09:48:21.237Z,94977.53
2018-12-02T09:50:51.617Z,94985.65
2018-12-02T09:53:22.130Z,94983.48
2018-12-02T09:55:52.551Z,94981.06
2018-12-02T09:58:30.069Z,94974.30
2018-12-02T10:01:01.206Z,94965.88
2018-12-02T10:03:31.628Z,94974.55
2018-12-02T10:06:02.113Z,94962.67
2018-12-02T10:08:32.426Z,94965.63
2018-12-02T10:11:02.815Z,94953.44
2018-12-02T10:13:33.358Z,94954.52
2018-12-02T10:16:03.847Z,94957.77
2018-12-02T10:18:34.380Z,94944.47
2018-12-02T10:21:05.208Z,94936.33
2018-12-02T10:23:35.606Z,94932.80
2018-12-02T10:26:06.658Z,94936.06
2018-12-02T10:28:37.185Z,94931.97
2018-12-02T10:31:07.695Z,94938.70
2018-12-02T10:33:38.214Z,94925.95
2018-12-02T10:36:08.715Z,94925.67
2018-12-02T10:38:39.177Z,94906.93
2018-12-02T10:41:09.553Z,94917.42
2018-12-02T10:43:40.131Z,94909.52
2018-12-02T10:46:10.547Z,94912.21
2018-12-02T10:48:40.866Z,94915.77
2018-12-02T10:51:11.280Z,94923.05
2018-12-02T10:53:41.696Z,94915.66
2018-12-02T10:56:12.100Z,94915.56
2018-12-02T10:58:42.592Z,94919.57
2018-12-02T11:01:19.490Z,94919.45
2018-12-02T11:03:50.138Z,94911.29
2018-12-02T11:06:20.555Z,94909.36
2018-12-02T11:08:50.880Z,94905.83
2018-12-02T11:11:21.340Z,94911.56
2018-12-02T11:13:51.839Z,94917.55
2018-12-02T11:16:22.162Z,94916.69
2018-12-02T11:18:52.581Z,94912.28
2018-12-02T11:21:22.995Z,94900.58
2018-12-02T11:23:53.419Z,94892.75
2018-12-02T11:26:23.823Z,94885.11
2018-12-02T11:28:54.262Z,94881.83
2018-12-02T11:31:24.549Z,94878.80
2018-12-02T11:33:54.863Z,94875.81
2018-12-02T11:36:25.418Z,94877.11
2018-12-02T11:38:55.771Z,94880.05
2018-12-02T11:41:26.270Z,94885.48
2018-12-02T11:43:56.592Z,94874.62
2018-12-02T11:46:27.120Z,94876.22
2018-12-02T11:48:57.537Z,94872.15
2018-12-02T11:51:27.930Z,94875.67
2018-12-02T11:53:58.341Z,94875.91
2018-12-02T11:56:28.844Z,94876.95
2018-12-02T11:58:59.225Z,94882.88
2018-12-02T12:01:34.341Z,94884.48
2018-12-02T12:04:03.269Z,94887.50
2018-12-02T12:06:34.550Z,94878.77
2018-12-02T12:09:07.760Z,94879.55
2018-12-02T12:11:38.238Z,94879.44
2018-12-02T12:14:08.648Z,94878.66
2018-12-02T12:16:40.155Z,94877.11
2018-12-02T12:19:10.597Z,94877.14
2018-12-02T12:21:41.015Z,94880.67
2018-12-02T12:24:11.405Z,94873.07
2018-12-02T12:26:41.732Z,94868.46
2018-12-02T12:29:12.251Z,94864.89
2018-12-02T12:31:42.722Z,94857.52
2018-12-02T12:34:13.255Z,94863.73
2018-12-02T12:36:43.585Z,94867.80
2018-12-02T12:39:14.002Z,94866.20
2018-12-02T12:41:44.345Z,94868.33
2018-12-02T12:44:14.790Z,94858.70
2018-12-02T12:46:45.113Z,94857.08
2018-12-02T12:49:15.572Z,94842.91
2018-12-02T12:51:45.999Z,94836.34
2018-12-02T12:54:16.407Z,94830.09
2018-12-02T12:56:46.773Z,94831.41
2018-12-02T12:59:17.195Z,94838.69
2018-12-02T13:01:47.529Z,94830.23
2018-12-02T13:04:18.046Z,94830.88
2018-12-02T13:06:48.757Z,94828.34
2018-12-02T13:09:19.243Z,94829.58
2018-12-02T13:11:49.774Z,94829.75
2018-12-02T13:14:20.105Z,94825.23
2018-12-02T13:16:50.416Z,94822.62
2018-12-02T13:19:20.926Z,94825.67
2018-12-02T13:21:51.506Z,94813.37
2018-12-02T13:24:21.821Z,94815.45
2018-12-02T13:26:52.130Z,94813.25
2018-12-02T13:29:22.631Z,94812.23
2018-12-02T13:31:52.999Z,94818.67
2018-12-02T13:34:23.511Z,94816.50
2018-12-02T13:36:53.834Z,94810.45
2018-12-02T13:39:24.374Z,94817.75
2018-12-02T13:41:54.887Z,94812.30
2018-12-02T13:44:25.306Z,94821.56
2018-12-02T13:46:55.723Z,94824.34
2018-12-02T13:49:26.240Z,94821.83
2018-12-02T13:51:56.571Z,94812.20
2018-12-02T13:54:36.765Z,94825.77
2018-12-02T13:57:07.303Z,94827.34
2018-12-02T13:59:39.010Z,94825.91
2018-12-02T14:02:09.551Z,94839.05
2018-12-02T14:04:39.872Z,94825.94
2018-12-02T14:07:10.408Z,94828.20
2018-12-02T14:09:40.752Z,94835.52
2018-12-02T14:12:11.299Z,94831.00
2018-12-02T14:14:43.546Z,94830.36
2018-12-02T14:17:21.934Z,94816.73
2018-12-02T14:19:52.440Z,94834.06
2018-12-02T14:22:22.859Z,94833.25
2018-12-02T14:24:53.425Z,94836.30
2018-12-02T14:27:23.856Z,94834.94
2018-12-02T14:29:55.632Z,94842.92
2018-12-02T14:32:26.950Z,94862.39
2018-12-02T14:34:57.390Z,94851.46
2018-12-02T14:37:27.802Z,94876.08
2018-12-02T14:39:58.264Z,94850.00
2018-12-02T14:42:28.598Z,94849.06
2018-12-02T14:44:59.001Z,94865.67
2018-12-02T14:47:29.432Z,94843.38
2018-12-02T14:49:59.842Z,94856.15
2018-12-02T14:52:30.172Z,94862.84
2018-12-02T14:55:00.533Z,94860.88
2018-12-02T14:57:30.865Z,94857.05
2018-12-02T15:00:01.272Z,94859.60
2018-12-02T15:02:31.691Z,94847.75
2018-12-02T15:05:02.017Z,94855.02
2018-12-02T15:07:32.641Z,94867.55
2018-12-02T15:10:03.060Z,94877.85
2018-12-02T15:12:33.376Z,94864.25
2018-12-02T15:15:03.891Z,94871.64
2018-12-02T15:17:34.302Z,94868.42
2018-12-02T15:20:05.458Z,94861.25
2018-12-02T15:22:35.864Z,94863.05
2018-12-02T15:25:07.097Z,94877.64
2018-12-02T15:27:37.517Z,94882.41
2018-12-02T15:30:19.407Z,94878.48
2018-12-02T15:32:50.927Z,94861.14
2018-12-02T15:35:21.385Z,94874.11
2018-12-02T15:37:51.727Z,94871.19
2018-12-02T15:40:22.509Z,94865.00
2018-12-02T15:42:57.077Z,94873.73
2018-12-02T15:45:27.497Z,94861.88
2018-12-02T15:47:57.996Z,94860.09
2018-12-02T15:50:28.350Z,94868.20
2018-12-02T15:52:58.796Z,94879.13
2018-12-02T15:55:33.424Z,94865.17
2018-12-02T15:58:08.819Z,94875.34
2018-12-02T16:00:40.858Z,94886.07
2018-12-02T16:03:11.283Z,94897.13
2018-12-02T16:05:41.733Z,94891.90
2018-12-02T16:08:12.533Z,94904.95
2018-12-02T16:10:43.036Z,94892.60
2018-12-02T16:13:13.742Z,94887.58
2018-12-02T16:15:44.080Z,94894.52
2018-12-02T16:18:15.520Z,94899.66
2018-12-02T16:20:50.377Z,94911.04
2018-12-02T16:23:22.205Z,94912.75
2018-12-02T16:25:52.813Z,94910.45
2018-12-02T16:28:23.738Z,94921.66
2018-12-02T16:30:55.451Z,94921.66
2018-12-02T16:33:26.098Z,94921.92
2018-12-02T16:35:56.728Z,94930.23
2018-12-02T16:38:27.707Z,94940.73
2018-12-02T16:40:58.210Z,94923.28
2018-12-02T16:43:28.666Z,94922.30
2018-12-02T16:45:59.300Z,94916.95
2018-12-02T16:48:29.706Z,94924.95
2018-12-02T16:51:00.726Z,94924.87
2018-12-02T16:53:31.580Z,94930.36
2018-12-02T16:56:12.374Z,94921.33
2018-12-02T16:59:20.622Z,94948.68
2018-12-02T17:01:56.206Z,94920.44
2018-12-02T17:04:26.808Z,94929.27
2018-12-02T17:06:57.227Z,94934.17
2018-12-02T17:09:27.760Z,94922.34
2018-12-02T17:11:58.255Z,94937.76
2018-12-02T17:14:28.677Z,94929.19
2018-12-02T17:16:59.205Z,94941.20
2018-12-02T17:19:29.615Z,94938.10
2018-12-02T17:22:00.040Z,94930.38
2018-12-02T17:24:30.552Z,94932.75
2018-12-02T17:27:00.949Z,94940.66
2018-12-02T17:29:31.274Z,94934.41
2018-12-02T17:32:15.948Z,94931.11
2018-12-02T17:34:46.398Z,94930.59
2018-12-02T17:37:16.812Z,94937.66
2018-12-02T17:39:49.749Z,94949.25
2018-12-02T17:42:20.089Z,94934.00
2018-12-02T17:44:50.519Z,94940.19
2018-12-02T17:47:20.839Z,94941.83
2018-12-02T17:49:51.257Z,94950.47
2018-12-02T17:52:21.593Z,94951.58
2018-12-02T17:54:52.021Z,94961.45
2018-12-02T17:57:22.341Z,94953.92
2018-12-02T17:59:52.845Z,94953.86
2018-12-02T18:02:23.206Z,94952.17
2018-12-02T18:04:53.514Z,94957.70
2018-12-02T18:07:23.828Z,94957.56
2018-12-02T18:09:54.282Z,94967.56
2018-12-02T18:12:24.884Z,94946.32
2018-12-02T18:14:56.098Z,94953.08
2018-12-02T18:17:26.431Z,94947.06
2018-12-02T18:19:56.767Z,94947.66
2018-12-02T18:22:27.179Z,94959.24
2018-12-02T18:24:57.507Z,94980.12
2018-12-02T18:27:27.931Z,94955.34
2018-12-02T18:29:58.442Z,94952.27
2018-12-02T18:32:28.794Z,94953.08
2018-12-02T18:34:59.403Z,94954.34
2018-12-02T18:37:29.739Z,94961.81
2018-12-02T18:40:00.187Z,94967.62
2018-12-02T18:42:30.548Z,94968.77
2018-12-02T18:45:01.032Z,94971.76
2018-12-02T18:47:31.346Z,94965.20
2018-12-02T18:50:01.661Z,94963.05
2018-12-02T18:52:31.965Z,94966.17
2018-12-02T18:55:02.377Z,94960.23
2018-12-02T18:57:32.813Z,94976.34
2018-12-02T19:00:03.110Z,94963.34
2018-12-02T19:02:33.547Z,94966.08
2018-12-02T19:05:04.174Z,94970.59
2018-12-02T19:07:34.573Z,94948.10
2018-12-02T19:10:06.590Z,94942.80
2018-12-02T19:12:36.906Z,94942.02
2018-12-02T19:15:10.006Z,94956.95
2018-12-02T19:17:40.514Z,94954.56
2018-12-02T19:20:24.410Z,94954.08
2018-12-02T19:22:56.112Z,94950.61
2018-12-02T19:25:27.956Z,94959.05
2018-12-02T19:27:58.524Z,94951.22
2018-12-02T19:30:32.979Z,94969.61
2018-12-02T19:33:00.191Z,94972.05
2018-12-02T19:35:34.958Z,94957.70
2018-12-02T19:38:10.940Z,94953.67
2018-12-02T19:40:41.367Z,94965.78
2018-12-02T19:43:11.875Z,94961.43
2018-12-02T19:45:42.398Z,94963.80
2018-12-02T19:48:12.810Z,94958.15
2018-12-02T19:50:43.436Z,94947.34
2018-12-02T19:53:13.860Z,94963.54
2018-12-02T19:55:44.176Z,94955.16
2018-12-02T19:58:15.239Z,94958.96
2018-12-02T20:00:46.656Z,94979.69
2018-12-02T20:03:19.875Z,94948.83
2018-12-02T20:05:50.816Z,94974.59
2018-12-02T20:08:21.452Z,94959.72
2018-12-02T20:10:53.628Z,94964.12
2018-12-02T20:13:24.614Z,94959.58
2018-12-02T20:16:12.238Z,94956.80
2018-12-02T20:18:42.623Z,94946.06
2018-12-02T20:21:13.081Z,94943.06
2018-12-02T20:24:00.691Z,94940.34
2018-12-02T20:26:31.079Z,94938.08
2018-12-02T20:29:01.495Z,94939.48
2018-12-02T20:31:31.939Z,94937.53
2018-12-02T20:34:02.287Z,94932.88
2018-12-02T20:36:32.694Z,94946.31
2018-12-02T20:39:03.596Z,94934.76
2018-12-02T20:41:33.952Z,94932.55
2018-12-02T20:44:04.464Z,94943.02
2018-12-02T20:46:34.803Z,94922.16
2018-12-02T20:49:05.220Z,94931.55
2018-12-02T20:51:35.719Z,94931.62
2018-12-02T20:54:06.749Z,94928.48
2018-12-02T20:56:37.277Z,94927.97
2018-12-02T20:59:08.613Z,94933.02
2018-12-02T21:01:39.044Z,94930.81
2018-12-02T21:04:11.418Z,94926.19
2018-12-02T21:06:41.848Z,94927.00
2018-12-02T21:09:12.193Z,94931.55
2018-12-02T21:11:42.590Z,94928.92
2018-12-02T21:14:12.934Z,94927.34
2018-12-02T21:16:43.439Z,94933.20
2018-12-02T21:19:13.856Z,94926.92
2018-12-02T21:21:44.347Z,94927.47
2018-12-02T21:24:14.775Z,94925.55
2018-12-02T21:26:45.089Z,94930.76
2018-12-02T21:29:15.464Z,94930.76
2018-12-02T21:31:45.818Z,94928.66
2018-12-02T21:34:16.161Z,94921.95
2018-12-02T21:36:46.556Z,94911.78
2018-12-02T21:39:16.880Z,94916.98
2018-12-02T21:41:47.217Z,94925.42
2018-12-02T21:44:17.634Z,94929.63
2018-12-02T21:46:47.968Z,94928.80
2018-12-02T21:49:18.477Z,94932.86
2018-12-02T21:51:48.866Z,94922.72
2018-12-02T21:54:19.388Z,94921.95
2018-12-02T21:56:49.809Z,94920.32
2018-12-02T21:59:20.117Z,94921.75
2018-12-02T22:01:50.527Z,94927.13
2018-12-02T22:04:20.830Z,94921.28
2018-12-02T22:06:51.363Z,94924.23
2018-12-02T22:09:21.864Z,94919.39
2018-12-02T22:11:52.288Z,94920.30
2018-12-02T22:14:22.603Z,94925.82
2018-12-02T22:16:53.106Z,94929.79
2018-12-02T22:19:23.509Z,94932.25
2018-12-02T22:21:53.821Z,94941.61
2018-12-02T22:24:24.157Z,94945.77
2018-12-02T22:26:54.646Z,94950.56
2018-12-02T22:29:24.968Z,94936.69
2018-12-02T22:31:55.288Z,94934.25
2018-12-02T22:34:25.610Z,94926.83
2018-12-02T22:36:55.929Z,94927.73
2018-12-02T22:39:26.374Z,94927.23
2018-12-02T22:41:56.715Z,94923.15
2018-12-02T22:44:31.426Z,94927.59
2018-12-02T22:46:58.594Z,94920.48
2018-12-02T22:49:28.917Z,94922.40
2018-12-02T22:51:59.324Z,94932.55
2018-12-02T22:54:29.760Z,94936.12
2018-12-02T22:57:00.383Z,94929.66
2018-12-02T22:59:30.742Z,94927.60
2018-12-02T23:02:27.377Z,94930.59
2018-12-02T23:04:57.886Z,94933.52
2018-12-02T23:07:28.594Z,94921.86
2018-12-02T23:09:58.944Z,94918.00
2018-12-02T23:12:29.364Z,94918.61
2018-12-02T23:14:59.782Z,94921.08
2018-12-02T23:17:30.194Z,94915.39
2018-12-02T23:20:00.719Z,94918.61
2018-12-02T23:22:31.126Z,94908.61
2018-12-02T23:25:01.441Z,94904.37
2018-12-02T23:27:31.834Z,94916.23
2018-12-02T23:30:02.244Z,94920.84
2018-12-02T23:32:32.940Z,94924.33
2018-12-02T23:35:03.371Z,94918.06
2018-12-02T23:37:33.779Z,94915.07
2018-12-02T23:40:04.405Z,94909.07
2018-12-02T23:42:34.923Z,94903.13
2018-12-02T23:45:06.672Z,94903.97
2018-12-02T23:47:37.002Z,94904.69
2018-12-02T23:50:09.720Z,94897.00
2018-12-02T23:52:40.122Z,94895.15
2018-12-02T23:55:11.796Z,94896.39
2018-12-02T23:57:42.501Z,94894.47
